sensor_id;sensor_type;location;lat;lon;timestamp;P1;durP1;ratioP1;P2;durP2;ratioP2
9972;SDS011;5027;53.560;10.062;2023-06-14T00:01:29;3.83;;;3.27;;
9972;SDS011;5027;53.560;10.062;2023-06-14T00:03:56;6.90;;;3.60;;
9972;SDS011;5027;53.560;10.062;2023-06-14T00:06:22;5.60;;;3.10;;
9972;SDS011;5027;53.560;10.062;2023-06-14T00:08:50;7.37;;;3.40;;
9972;SDS011;5027;53.560;10.062;2023-06-14T00:11:17;5.87;;;3.30;;
9972;SDS011;5027;53.560;10.062;2023-06-14T00:13:44;4.63;;;2.93;;
9972;SDS011;5027;53.560;10.062;2023-06-14T00:16:10;4.57;;;3.03;;
9972;SDS011;5027;53.560;10.062;2023-06-14T00:18:38;6.17;;;3.30;;
9972;SDS011;5027;53.560;10.062;2023-06-14T00:21:05;4.03;;;3.40;;
9972;SDS011;5027;53.560;10.062;2023-06-14T00:23:32;6.40;;;3.40;;
9972;SDS011;5027;53.560;10.062;2023-06-14T00:25:59;3.60;;;3.13;;
9972;SDS011;5027;53.560;10.062;2023-06-14T00:28:25;3.87;;;3.20;;
9972;SDS011;5027;53.560;10.062;2023-06-14T00:30:52;5.97;;;2.83;;
9972;SDS011;5027;53.560;10.062;2023-06-14T00:33:19;6.10;;;3.00;;
9972;SDS011;5027;53.560;10.062;2023-06-14T00:35:45;5.73;;;3.03;;
9972;SDS011;5027;53.560;10.062;2023-06-14T00:38:13;6.93;;;3.37;;
9972;SDS011;5027;53.560;10.062;2023-06-14T00:40:40;5.87;;;3.13;;
9972;SDS011;5027;53.560;10.062;2023-06-14T00:43:06;5.33;;;3.07;;
9972;SDS011;5027;53.560;10.062;2023-06-14T00:45:33;6.27;;;2.97;;
9972;SDS011;5027;53.560;10.062;2023-06-14T00:48:02;3.73;;;2.87;;
9972;SDS011;5027;53.560;10.062;2023-06-14T00:50:32;4.20;;;3.43;;
9972;SDS011;5027;53.560;10.062;2023-06-14T00:53:00;6.10;;;3.20;;
9972;SDS011;5027;53.560;10.062;2023-06-14T00:55:27;5.43;;;2.97;;
9972;SDS011;5027;53.560;10.062;2023-06-14T00:57:54;7.63;;;3.27;;
9972;SDS011;5027;53.560;10.062;2023-06-14T01:00:22;4.57;;;2.97;;
9972;SDS011;5027;53.560;10.062;2023-06-14T01:02:49;7.40;;;3.07;;
9972;SDS011;5027;53.560;10.062;2023-06-14T01:05:16;9.23;;;3.20;;
9972;SDS011;5027;53.560;10.062;2023-06-14T01:07:51;6.53;;;3.13;;
9972;SDS011;5027;53.560;10.062;2023-06-14T01:10:47;7.63;;;3.77;;
9972;SDS011;5027;53.560;10.062;2023-06-14T01:13:45;5.60;;;3.40;;
9972;SDS011;5027;53.560;10.062;2023-06-14T01:16:11;5.73;;;2.93;;
9972;SDS011;5027;53.560;10.062;2023-06-14T01:18:38;7.23;;;3.10;;
9972;SDS011;5027;53.560;10.062;2023-06-14T01:21:19;11.30;;;3.80;;
9972;SDS011;5027;53.560;10.062;2023-06-14T01:23:48;6.70;;;3.17;;
9972;SDS011;5027;53.560;10.062;2023-06-14T01:26:19;3.80;;;3.03;;
9972;SDS011;5027;53.560;10.062;2023-06-14T01:28:47;8.50;;;3.37;;
9972;SDS011;5027;53.560;10.062;2023-06-14T01:31:17;4.80;;;3.03;;
9972;SDS011;5027;53.560;10.062;2023-06-14T01:33:45;4.30;;;3.20;;
9972;SDS011;5027;53.560;10.062;2023-06-14T01:36:13;4.50;;;3.63;;
9972;SDS011;5027;53.560;10.062;2023-06-14T01:38:40;5.63;;;2.80;;
9972;SDS011;5027;53.560;10.062;2023-06-14T01:41:10;4.33;;;3.17;;
9972;SDS011;5027;53.560;10.062;2023-06-14T01:43:37;3.67;;;3.20;;
9972;SDS011;5027;53.560;10.062;2023-06-14T01:46:05;7.87;;;3.20;;
9972;SDS011;5027;53.560;10.062;2023-06-14T01:48:34;5.60;;;3.23;;
9972;SDS011;5027;53.560;10.062;2023-06-14T01:51:02;4.23;;;3.47;;
9972;SDS011;5027;53.560;10.062;2023-06-14T01:53:29;5.30;;;3.40;;
9972;SDS011;5027;53.560;10.062;2023-06-14T01:55:56;7.13;;;3.60;;
9972;SDS011;5027;53.560;10.062;2023-06-14T01:58:23;4.37;;;3.10;;
9972;SDS011;5027;53.560;10.062;2023-06-14T02:00:50;6.70;;;3.47;;
9972;SDS011;5027;53.560;10.062;2023-06-14T02:03:17;4.37;;;3.77;;
9972;SDS011;5027;53.560;10.062;2023-06-14T02:05:45;7.33;;;3.23;;
9972;SDS011;5027;53.560;10.062;2023-06-14T02:08:12;4.87;;;3.53;;
9972;SDS011;5027;53.560;10.062;2023-06-14T02:10:39;5.00;;;3.20;;
9972;SDS011;5027;53.560;10.062;2023-06-14T02:13:06;5.57;;;3.40;;
9972;SDS011;5027;53.560;10.062;2023-06-14T02:15:32;5.33;;;3.27;;
9972;SDS011;5027;53.560;10.062;2023-06-14T02:18:03;5.67;;;3.50;;
9972;SDS011;5027;53.560;10.062;2023-06-14T02:20:32;5.40;;;3.93;;
9972;SDS011;5027;53.560;10.062;2023-06-14T02:23:00;5.07;;;3.30;;
9972;SDS011;5027;53.560;10.062;2023-06-14T02:25:30;8.83;;;3.70;;
9972;SDS011;5027;53.560;10.062;2023-06-14T02:27:56;4.37;;;3.60;;
9972;SDS011;5027;53.560;10.062;2023-06-14T02:30:23;4.80;;;3.97;;
9972;SDS011;5027;53.560;10.062;2023-06-14T02:32:50;4.83;;;3.93;;
9972;SDS011;5027;53.560;10.062;2023-06-14T02:35:17;5.13;;;3.00;;
9972;SDS011;5027;53.560;10.062;2023-06-14T02:37:44;4.57;;;3.43;;
9972;SDS011;5027;53.560;10.062;2023-06-14T02:40:11;5.63;;;3.90;;
9972;SDS011;5027;53.560;10.062;2023-06-14T02:42:38;5.87;;;3.90;;
9972;SDS011;5027;53.560;10.062;2023-06-14T02:45:05;7.57;;;3.63;;
9972;SDS011;5027;53.560;10.062;2023-06-14T02:47:32;5.30;;;3.63;;
9972;SDS011;5027;53.560;10.062;2023-06-14T02:49:59;5.40;;;4.00;;
9972;SDS011;5027;53.560;10.062;2023-06-14T02:52:25;7.60;;;3.47;;
9972;SDS011;5027;53.560;10.062;2023-06-14T02:54:52;15.63;;;4.50;;
9972;SDS011;5027;53.560;10.062;2023-06-14T02:57:20;9.33;;;4.17;;
9972;SDS011;5027;53.560;10.062;2023-06-14T02:59:48;7.63;;;3.93;;
9972;SDS011;5027;53.560;10.062;2023-06-14T03:02:15;9.40;;;4.10;;
9972;SDS011;5027;53.560;10.062;2023-06-14T03:04:43;4.37;;;3.97;;
9972;SDS011;5027;53.560;10.062;2023-06-14T03:07:13;7.37;;;3.43;;
9972;SDS011;5027;53.560;10.062;2023-06-14T03:09:48;5.30;;;3.50;;
9972;SDS011;5027;53.560;10.062;2023-06-14T03:12:15;5.80;;;4.07;;
9972;SDS011;5027;53.560;10.062;2023-06-14T03:14:42;7.27;;;3.97;;
9972;SDS011;5027;53.560;10.062;2023-06-14T03:17:12;8.57;;;4.13;;
9972;SDS011;5027;53.560;10.062;2023-06-14T03:19:39;5.60;;;3.93;;
9972;SDS011;5027;53.560;10.062;2023-06-14T03:22:07;4.23;;;3.27;;
9972;SDS011;5027;53.560;10.062;2023-06-14T03:24:36;8.80;;;4.83;;
9972;SDS011;5027;53.560;10.062;2023-06-14T03:27:09;6.97;;;3.73;;
9972;SDS011;5027;53.560;10.062;2023-06-14T03:29:38;8.83;;;3.77;;
9972;SDS011;5027;53.560;10.062;2023-06-14T03:32:06;10.63;;;4.70;;
9972;SDS011;5027;53.560;10.062;2023-06-14T03:34:39;5.67;;;3.90;;
9972;SDS011;5027;53.560;10.062;2023-06-14T03:37:11;7.67;;;3.40;;
9972;SDS011;5027;53.560;10.062;2023-06-14T03:39:38;5.70;;;4.00;;
9972;SDS011;5027;53.560;10.062;2023-06-14T03:42:15;9.13;;;4.67;;
9972;SDS011;5027;53.560;10.062;2023-06-14T03:44:43;6.50;;;3.60;;
9972;SDS011;5027;53.560;10.062;2023-06-14T03:47:10;6.77;;;4.40;;
9972;SDS011;5027;53.560;10.062;2023-06-14T03:49:37;5.67;;;3.53;;
9972;SDS011;5027;53.560;10.062;2023-06-14T03:52:04;5.33;;;4.03;;
9972;SDS011;5027;53.560;10.062;2023-06-14T03:54:32;4.63;;;3.67;;
9972;SDS011;5027;53.560;10.062;2023-06-14T03:57:19;6.47;;;4.57;;
9972;SDS011;5027;53.560;10.062;2023-06-14T03:59:49;5.10;;;3.93;;
9972;SDS011;5027;53.560;10.062;2023-06-14T04:02:16;6.10;;;3.60;;
9972;SDS011;5027;53.560;10.062;2023-06-14T04:04:44;9.20;;;4.07;;
9972;SDS011;5027;53.560;10.062;2023-06-14T04:07:12;5.57;;;4.03;;
9972;SDS011;5027;53.560;10.062;2023-06-14T04:09:39;5.23;;;4.03;;
9972;SDS011;5027;53.560;10.062;2023-06-14T04:12:06;6.60;;;4.57;;
9972;SDS011;5027;53.560;10.062;2023-06-14T04:14:38;7.77;;;4.47;;
9972;SDS011;5027;53.560;10.062;2023-06-14T04:17:07;9.13;;;4.60;;
9972;SDS011;5027;53.560;10.062;2023-06-14T04:19:36;7.20;;;4.23;;
9972;SDS011;5027;53.560;10.062;2023-06-14T04:22:03;8.53;;;4.73;;
9972;SDS011;5027;53.560;10.062;2023-06-14T04:24:33;9.57;;;4.47;;
9972;SDS011;5027;53.560;10.062;2023-06-14T04:27:01;6.07;;;4.13;;
9972;SDS011;5027;53.560;10.062;2023-06-14T04:29:29;7.57;;;4.07;;
9972;SDS011;5027;53.560;10.062;2023-06-14T04:32:01;7.63;;;4.23;;
9972;SDS011;5027;53.560;10.062;2023-06-14T04:34:28;9.70;;;4.60;;
9972;SDS011;5027;53.560;10.062;2023-06-14T04:37:01;7.40;;;4.50;;
9972;SDS011;5027;53.560;10.062;2023-06-14T04:39:45;8.13;;;4.60;;
9972;SDS011;5027;53.560;10.062;2023-06-14T04:42:13;9.70;;;4.13;;
9972;SDS011;5027;53.560;10.062;2023-06-14T04:44:41;8.97;;;4.40;;
9972;SDS011;5027;53.560;10.062;2023-06-14T04:47:10;7.17;;;4.03;;
9972;SDS011;5027;53.560;10.062;2023-06-14T04:49:42;5.23;;;4.30;;
9972;SDS011;5027;53.560;10.062;2023-06-14T04:52:09;5.27;;;4.00;;
9972;SDS011;5027;53.560;10.062;2023-06-14T04:54:39;7.27;;;5.23;;
9972;SDS011;5027;53.560;10.062;2023-06-14T04:57:12;8.00;;;4.90;;
9972;SDS011;5027;53.560;10.062;2023-06-14T04:59:42;6.60;;;4.30;;
9972;SDS011;5027;53.560;10.062;2023-06-14T05:02:11;7.13;;;5.67;;
9972;SDS011;5027;53.560;10.062;2023-06-14T05:04:38;6.57;;;4.73;;
9972;SDS011;5027;53.560;10.062;2023-06-14T05:07:06;8.93;;;5.50;;
9972;SDS011;5027;53.560;10.062;2023-06-14T05:09:35;8.60;;;4.70;;
9972;SDS011;5027;53.560;10.062;2023-06-14T05:12:02;6.60;;;4.20;;
9972;SDS011;5027;53.560;10.062;2023-06-14T05:14:29;5.83;;;4.20;;
9972;SDS011;5027;53.560;10.062;2023-06-14T05:16:57;15.33;;;4.90;;
9972;SDS011;5027;53.560;10.062;2023-06-14T05:19:23;7.70;;;4.70;;
9972;SDS011;5027;53.560;10.062;2023-06-14T05:21:50;8.93;;;4.43;;
9972;SDS011;5027;53.560;10.062;2023-06-14T05:24:17;5.47;;;4.07;;
9972;SDS011;5027;53.560;10.062;2023-06-14T05:26:44;5.50;;;4.10;;
9972;SDS011;5027;53.560;10.062;2023-06-14T05:29:11;6.17;;;4.37;;
9972;SDS011;5027;53.560;10.062;2023-06-14T05:31:38;6.13;;;4.37;;
9972;SDS011;5027;53.560;10.062;2023-06-14T05:34:05;8.30;;;4.30;;
9972;SDS011;5027;53.560;10.062;2023-06-14T05:36:31;7.80;;;4.03;;
9972;SDS011;5027;53.560;10.062;2023-06-14T05:38:58;8.83;;;4.00;;
9972;SDS011;5027;53.560;10.062;2023-06-14T05:41:26;5.77;;;4.10;;
9972;SDS011;5027;53.560;10.062;2023-06-14T05:43:54;7.97;;;4.47;;
9972;SDS011;5027;53.560;10.062;2023-06-14T05:46:22;8.10;;;4.27;;
9972;SDS011;5027;53.560;10.062;2023-06-14T05:48:52;9.87;;;4.40;;
9972;SDS011;5027;53.560;10.062;2023-06-14T05:51:19;9.87;;;4.37;;
9972;SDS011;5027;53.560;10.062;2023-06-14T05:53:46;7.37;;;4.10;;
9972;SDS011;5027;53.560;10.062;2023-06-14T05:56:14;6.53;;;4.23;;
9972;SDS011;5027;53.560;10.062;2023-06-14T05:58:44;5.97;;;4.40;;
9972;SDS011;5027;53.560;10.062;2023-06-14T06:01:11;8.17;;;4.07;;
9972;SDS011;5027;53.560;10.062;2023-06-14T06:03:39;10.40;;;4.40;;
9972;SDS011;5027;53.560;10.062;2023-06-14T06:06:06;5.37;;;4.53;;
9972;SDS011;5027;53.560;10.062;2023-06-14T06:08:34;7.20;;;4.00;;
9972;SDS011;5027;53.560;10.062;2023-06-14T06:11:01;5.10;;;3.67;;
9972;SDS011;5027;53.560;10.062;2023-06-14T06:13:28;12.27;;;4.37;;
9972;SDS011;5027;53.560;10.062;2023-06-14T06:15:55;11.57;;;4.03;;
9972;SDS011;5027;53.560;10.062;2023-06-14T06:18:22;7.67;;;5.30;;
9972;SDS011;5027;53.560;10.062;2023-06-14T06:20:49;11.37;;;4.27;;
9972;SDS011;5027;53.560;10.062;2023-06-14T06:23:16;5.43;;;3.67;;
9972;SDS011;5027;53.560;10.062;2023-06-14T06:25:43;7.37;;;3.80;;
9972;SDS011;5027;53.560;10.062;2023-06-14T06:28:09;10.73;;;4.00;;
9972;SDS011;5027;53.560;10.062;2023-06-14T06:30:37;6.87;;;3.80;;
9972;SDS011;5027;53.560;10.062;2023-06-14T06:33:04;5.17;;;3.83;;
9972;SDS011;5027;53.560;10.062;2023-06-14T06:35:31;4.00;;;3.23;;
9972;SDS011;5027;53.560;10.062;2023-06-14T06:37:59;5.63;;;3.80;;
9972;SDS011;5027;53.560;10.062;2023-06-14T06:40:27;5.10;;;3.50;;
9972;SDS011;5027;53.560;10.062;2023-06-14T06:42:54;6.60;;;3.63;;
9972;SDS011;5027;53.560;10.062;2023-06-14T06:45:21;6.87;;;3.33;;
9972;SDS011;5027;53.560;10.062;2023-06-14T06:47:51;7.13;;;4.27;;
9972;SDS011;5027;53.560;10.062;2023-06-14T06:50:18;5.27;;;3.60;;
9972;SDS011;5027;53.560;10.062;2023-06-14T06:52:46;5.57;;;2.83;;
9972;SDS011;5027;53.560;10.062;2023-06-14T06:55:13;4.80;;;3.53;;
9972;SDS011;5027;53.560;10.062;2023-06-14T06:57:41;5.40;;;3.23;;
9972;SDS011;5027;53.560;10.062;2023-06-14T07:00:08;7.33;;;3.37;;
9972;SDS011;5027;53.560;10.062;2023-06-14T07:02:36;7.67;;;4.00;;
9972;SDS011;5027;53.560;10.062;2023-06-14T07:05:03;7.40;;;3.47;;
9972;SDS011;5027;53.560;10.062;2023-06-14T07:07:31;3.37;;;3.07;;
9972;SDS011;5027;53.560;10.062;2023-06-14T07:09:57;8.33;;;3.97;;
9972;SDS011;5027;53.560;10.062;2023-06-14T07:12:25;7.20;;;3.47;;
9972;SDS011;5027;53.560;10.062;2023-06-14T07:14:52;3.37;;;3.07;;
9972;SDS011;5027;53.560;10.062;2023-06-14T07:17:18;6.87;;;3.50;;
9972;SDS011;5027;53.560;10.062;2023-06-14T07:19:45;5.07;;;3.47;;
9972;SDS011;5027;53.560;10.062;2023-06-14T07:22:14;3.77;;;2.90;;
9972;SDS011;5027;53.560;10.062;2023-06-14T07:24:41;6.63;;;3.17;;
9972;SDS011;5027;53.560;10.062;2023-06-14T07:27:09;5.97;;;3.10;;
9972;SDS011;5027;53.560;10.062;2023-06-14T07:29:40;9.90;;;3.13;;
9972;SDS011;5027;53.560;10.062;2023-06-14T07:32:07;4.87;;;3.40;;
9972;SDS011;5027;53.560;10.062;2023-06-14T07:34:34;3.60;;;3.30;;
9972;SDS011;5027;53.560;10.062;2023-06-14T07:37:00;3.13;;;2.70;;
9972;SDS011;5027;53.560;10.062;2023-06-14T07:39:27;4.07;;;2.97;;
9972;SDS011;5027;53.560;10.062;2023-06-14T07:41:54;3.70;;;2.77;;
9972;SDS011;5027;53.560;10.062;2023-06-14T07:44:20;4.93;;;3.63;;
9972;SDS011;5027;53.560;10.062;2023-06-14T07:46:47;6.77;;;3.30;;
9972;SDS011;5027;53.560;10.062;2023-06-14T07:49:15;7.80;;;3.20;;
9972;SDS011;5027;53.560;10.062;2023-06-14T07:51:42;4.37;;;2.67;;
9972;SDS011;5027;53.560;10.062;2023-06-14T07:54:11;4.17;;;3.10;;
9972;SDS011;5027;53.560;10.062;2023-06-14T07:56:38;4.90;;;3.20;;
9972;SDS011;5027;53.560;10.062;2023-06-14T07:59:04;7.40;;;3.97;;
9972;SDS011;5027;53.560;10.062;2023-06-14T08:01:32;6.40;;;3.03;;
9972;SDS011;5027;53.560;10.062;2023-06-14T08:03:59;5.57;;;2.80;;
9972;SDS011;5027;53.560;10.062;2023-06-14T08:06:26;5.57;;;3.17;;
9972;SDS011;5027;53.560;10.062;2023-06-14T08:08:53;4.97;;;3.13;;
9972;SDS011;5027;53.560;10.062;2023-06-14T08:11:20;4.37;;;2.83;;
9972;SDS011;5027;53.560;10.062;2023-06-14T08:13:47;5.00;;;3.27;;
9972;SDS011;5027;53.560;10.062;2023-06-14T08:16:13;3.33;;;2.80;;
9972;SDS011;5027;53.560;10.062;2023-06-14T08:18:40;6.20;;;3.47;;
9972;SDS011;5027;53.560;10.062;2023-06-14T08:21:07;4.00;;;3.00;;
9972;SDS011;5027;53.560;10.062;2023-06-14T08:23:34;2.70;;;2.50;;
9972;SDS011;5027;53.560;10.062;2023-06-14T08:26:02;2.67;;;2.40;;
9972;SDS011;5027;53.560;10.062;2023-06-14T08:28:30;2.70;;;2.50;;
9972;SDS011;5027;53.560;10.062;2023-06-14T08:30:57;5.60;;;3.67;;
9972;SDS011;5027;53.560;10.062;2023-06-14T08:33:23;6.43;;;3.50;;
9972;SDS011;5027;53.560;10.062;2023-06-14T08:35:51;2.90;;;2.70;;
9972;SDS011;5027;53.560;10.062;2023-06-14T08:38:17;7.60;;;3.67;;
9972;SDS011;5027;53.560;10.062;2023-06-14T08:40:45;5.07;;;3.67;;
9972;SDS011;5027;53.560;10.062;2023-06-14T08:43:14;3.20;;;2.80;;
9972;SDS011;5027;53.560;10.062;2023-06-14T08:45:41;4.53;;;3.27;;
9972;SDS011;5027;53.560;10.062;2023-06-14T08:48:08;7.43;;;3.30;;
9972;SDS011;5027;53.560;10.062;2023-06-14T08:50:35;5.10;;;3.10;;
9972;SDS011;5027;53.560;10.062;2023-06-14T08:53:04;6.50;;;3.37;;
9972;SDS011;5027;53.560;10.062;2023-06-14T08:55:32;4.10;;;3.10;;
9972;SDS011;5027;53.560;10.062;2023-06-14T08:58:02;8.77;;;4.10;;
9972;SDS011;5027;53.560;10.062;2023-06-14T09:00:31;7.33;;;3.57;;
9972;SDS011;5027;53.560;10.062;2023-06-14T09:02:59;7.63;;;3.90;;
9972;SDS011;5027;53.560;10.062;2023-06-14T09:05:27;6.07;;;3.33;;
9972;SDS011;5027;53.560;10.062;2023-06-14T09:07:54;3.70;;;3.30;;
9972;SDS011;5027;53.560;10.062;2023-06-14T09:10:22;3.40;;;3.10;;
9972;SDS011;5027;53.560;10.062;2023-06-14T09:12:50;7.10;;;4.20;;
9972;SDS011;5027;53.560;10.062;2023-06-14T09:15:17;5.50;;;3.33;;
9972;SDS011;5027;53.560;10.062;2023-06-14T09:17:44;5.83;;;3.20;;
9972;SDS011;5027;53.560;10.062;2023-06-14T09:20:11;3.60;;;3.30;;
9972;SDS011;5027;53.560;10.062;2023-06-14T09:22:45;5.80;;;3.07;;
9972;SDS011;5027;53.560;10.062;2023-06-14T09:25:12;3.70;;;3.33;;
9972;SDS011;5027;53.560;10.062;2023-06-14T09:28:01;6.10;;;3.47;;
9972;SDS011;5027;53.560;10.062;2023-06-14T09:30:28;6.07;;;3.23;;
9972;SDS011;5027;53.560;10.062;2023-06-14T09:32:55;4.20;;;3.07;;
9972;SDS011;5027;53.560;10.062;2023-06-14T09:35:26;5.03;;;3.40;;
9972;SDS011;5027;53.560;10.062;2023-06-14T09:37:55;8.33;;;3.43;;
9972;SDS011;5027;53.560;10.062;2023-06-14T09:40:23;2.53;;;2.33;;
9972;SDS011;5027;53.560;10.062;2023-06-14T09:42:50;6.00;;;3.50;;
9972;SDS011;5027;53.560;10.062;2023-06-14T09:45:18;5.07;;;2.83;;
9972;SDS011;5027;53.560;10.062;2023-06-14T09:47:51;7.27;;;3.67;;
9972;SDS011;5027;53.560;10.062;2023-06-14T09:50:32;7.70;;;4.17;;
9972;SDS011;5027;53.560;10.062;2023-06-14T09:53:05;3.00;;;2.70;;
9972;SDS011;5027;53.560;10.062;2023-06-14T09:55:36;7.83;;;5.37;;
9972;SDS011;5027;53.560;10.062;2023-06-14T09:58:05;3.57;;;3.27;;
9972;SDS011;5027;53.560;10.062;2023-06-14T10:00:34;5.23;;;3.63;;
9972;SDS011;5027;53.560;10.062;2023-06-14T10:03:05;7.10;;;3.50;;
9972;SDS011;5027;53.560;10.062;2023-06-14T10:05:37;4.70;;;3.67;;
9972;SDS011;5027;53.560;10.062;2023-06-14T10:08:08;4.40;;;3.40;;
9972;SDS011;5027;53.560;10.062;2023-06-14T10:10:38;4.67;;;2.53;;
9972;SDS011;5027;53.560;10.062;2023-06-14T10:13:06;5.90;;;4.00;;
9972;SDS011;5027;53.560;10.062;2023-06-14T10:21:13;3.33;;;2.63;;
9972;SDS011;5027;53.560;10.062;2023-06-14T10:24:01;5.70;;;2.70;;
9972;SDS011;5027;53.560;10.062;2023-06-14T10:26:33;8.57;;;3.70;;
9972;SDS011;5027;53.560;10.062;2023-06-14T10:29:00;11.10;;;3.90;;
9972;SDS011;5027;53.560;10.062;2023-06-14T10:31:44;8.97;;;3.90;;
9972;SDS011;5027;53.560;10.062;2023-06-14T10:34:24;8.17;;;4.10;;
9972;SDS011;5027;53.560;10.062;2023-06-14T10:39:29;2.97;;;2.57;;
9972;SDS011;5027;53.560;10.062;2023-06-14T10:41:56;4.10;;;3.27;;
9972;SDS011;5027;53.560;10.062;2023-06-14T10:46:54;5.00;;;3.60;;
9972;SDS011;5027;53.560;10.062;2023-06-14T10:49:40;3.13;;;2.83;;
9972;SDS011;5027;53.560;10.062;2023-06-14T10:52:12;6.17;;;3.97;;
9972;SDS011;5027;53.560;10.062;2023-06-14T10:55:01;4.93;;;3.60;;
9972;SDS011;5027;53.560;10.062;2023-06-14T10:57:49;5.77;;;4.00;;
9972;SDS011;5027;53.560;10.062;2023-06-14T11:00:20;6.60;;;4.03;;
9972;SDS011;5027;53.560;10.062;2023-06-14T11:03:13;3.17;;;2.87;;
9972;SDS011;5027;53.560;10.062;2023-06-14T11:06:13;5.57;;;3.80;;
9972;SDS011;5027;53.560;10.062;2023-06-14T11:11:45;5.00;;;2.77;;
9972;SDS011;5027;53.560;10.062;2023-06-14T11:14:13;5.17;;;3.47;;
9972;SDS011;5027;53.560;10.062;2023-06-14T11:16:40;9.43;;;4.53;;
9972;SDS011;5027;53.560;10.062;2023-06-14T11:19:06;5.20;;;3.80;;
9972;SDS011;5027;53.560;10.062;2023-06-14T11:21:33;9.20;;;3.80;;
9972;SDS011;5027;53.560;10.062;2023-06-14T11:24:00;7.27;;;3.70;;
9972;SDS011;5027;53.560;10.062;2023-06-14T11:26:28;13.67;;;4.10;;
9972;SDS011;5027;53.560;10.062;2023-06-14T11:28:57;18.87;;;4.83;;
9972;SDS011;5027;53.560;10.062;2023-06-14T11:31:25;16.90;;;4.93;;
9972;SDS011;5027;53.560;10.062;2023-06-14T11:33:53;8.33;;;4.43;;
9972;SDS011;5027;53.560;10.062;2023-06-14T11:36:21;11.07;;;3.67;;
9972;SDS011;5027;53.560;10.062;2023-06-14T11:38:49;12.53;;;4.40;;
9972;SDS011;5027;53.560;10.062;2023-06-14T11:41:16;6.10;;;3.70;;
9972;SDS011;5027;53.560;10.062;2023-06-14T11:43:43;7.63;;;4.13;;
9972;SDS011;5027;53.560;10.062;2023-06-14T11:46:13;5.57;;;4.50;;
9972;SDS011;5027;53.560;10.062;2023-06-14T11:48:44;9.47;;;4.10;;
9972;SDS011;5027;53.560;10.062;2023-06-14T11:51:11;5.57;;;4.10;;
9972;SDS011;5027;53.560;10.062;2023-06-14T11:53:38;7.43;;;3.87;;
9972;SDS011;5027;53.560;10.062;2023-06-14T11:56:05;15.03;;;4.77;;
9972;SDS011;5027;53.560;10.062;2023-06-14T11:58:33;7.67;;;3.90;;
9972;SDS011;5027;53.560;10.062;2023-06-14T12:01:00;5.17;;;3.67;;
9972;SDS011;5027;53.560;10.062;2023-06-14T12:03:29;10.00;;;4.03;;
9972;SDS011;5027;53.560;10.062;2023-06-14T12:06:05;8.13;;;3.93;;
9972;SDS011;5027;53.560;10.062;2023-06-14T12:08:36;7.80;;;3.50;;
9972;SDS011;5027;53.560;10.062;2023-06-14T12:11:10;7.17;;;3.73;;
9972;SDS011;5027;53.560;10.062;2023-06-14T12:13:40;11.33;;;5.20;;
9972;SDS011;5027;53.560;10.062;2023-06-14T12:16:08;18.63;;;4.70;;
9972;SDS011;5027;53.560;10.062;2023-06-14T12:18:36;64.80;;;9.03;;
9972;SDS011;5027;53.560;10.062;2023-06-14T12:21:04;81.77;;;10.07;;
9972;SDS011;5027;53.560;10.062;2023-06-14T12:23:47;93.67;;;11.63;;
9972;SDS011;5027;53.560;10.062;2023-06-14T12:26:16;34.73;;;7.47;;
9972;SDS011;5027;53.560;10.062;2023-06-14T12:31:22;26.23;;;5.60;;
9972;SDS011;5027;53.560;10.062;2023-06-14T12:33:50;33.77;;;7.30;;
9972;SDS011;5027;53.560;10.062;2023-06-14T12:36:17;6.83;;;3.63;;
9972;SDS011;5027;53.560;10.062;2023-06-14T12:38:44;25.50;;;6.27;;
9972;SDS011;5027;53.560;10.062;2023-06-14T12:41:14;9.00;;;4.43;;
9972;SDS011;5027;53.560;10.062;2023-06-14T12:43:41;5.30;;;3.67;;
9972;SDS011;5027;53.560;10.062;2023-06-14T12:46:08;4.87;;;3.63;;
9972;SDS011;5027;53.560;10.062;2023-06-14T12:48:35;8.13;;;3.50;;
9972;SDS011;5027;53.560;10.062;2023-06-14T12:51:01;9.30;;;4.33;;
9972;SDS011;5027;53.560;10.062;2023-06-14T12:53:29;11.20;;;4.20;;
9972;SDS011;5027;53.560;10.062;2023-06-14T12:55:56;5.03;;;3.80;;
9972;SDS011;5027;53.560;10.062;2023-06-14T12:58:32;11.70;;;4.70;;
9972;SDS011;5027;53.560;10.062;2023-06-14T13:00:59;5.63;;;3.87;;
9972;SDS011;5027;53.560;10.062;2023-06-14T13:03:26;5.63;;;3.63;;
9972;SDS011;5027;53.560;10.062;2023-06-14T13:05:58;10.53;;;3.90;;
9972;SDS011;5027;53.560;10.062;2023-06-14T13:08:25;10.80;;;3.33;;
9972;SDS011;5027;53.560;10.062;2023-06-14T13:10:51;7.27;;;3.60;;
9972;SDS011;5027;53.560;10.062;2023-06-14T13:13:18;14.90;;;4.30;;
9972;SDS011;5027;53.560;10.062;2023-06-14T13:15:45;9.23;;;4.50;;
9972;SDS011;5027;53.560;10.062;2023-06-14T13:18:12;5.93;;;3.73;;
9972;SDS011;5027;53.560;10.062;2023-06-14T13:20:39;11.37;;;3.53;;
9972;SDS011;5027;53.560;10.062;2023-06-14T13:23:06;8.97;;;4.00;;
9972;SDS011;5027;53.560;10.062;2023-06-14T13:25:36;12.27;;;3.67;;
9972;SDS011;5027;53.560;10.062;2023-06-14T13:28:05;9.53;;;3.80;;
9972;SDS011;5027;53.560;10.062;2023-06-14T13:30:32;9.73;;;3.30;;
9972;SDS011;5027;53.560;10.062;2023-06-14T13:33:01;12.07;;;4.27;;
9972;SDS011;5027;53.560;10.062;2023-06-14T13:35:28;5.37;;;4.00;;
9972;SDS011;5027;53.560;10.062;2023-06-14T13:37:55;7.13;;;3.50;;
9972;SDS011;5027;53.560;10.062;2023-06-14T13:40:21;6.73;;;4.20;;
9972;SDS011;5027;53.560;10.062;2023-06-14T13:42:48;7.13;;;3.70;;
9972;SDS011;5027;53.560;10.062;2023-06-14T13:45:16;8.57;;;3.80;;
9972;SDS011;5027;53.560;10.062;2023-06-14T13:47:42;4.67;;;3.60;;
9972;SDS011;5027;53.560;10.062;2023-06-14T13:50:09;10.83;;;4.13;;
9972;SDS011;5027;53.560;10.062;2023-06-14T13:52:36;4.20;;;3.03;;
9972;SDS011;5027;53.560;10.062;2023-06-14T13:55:03;9.23;;;4.10;;
9972;SDS011;5027;53.560;10.062;2023-06-14T13:57:31;5.23;;;3.47;;
9972;SDS011;5027;53.560;10.062;2023-06-14T13:59:58;5.63;;;3.40;;
9972;SDS011;5027;53.560;10.062;2023-06-14T14:02:37;6.77;;;4.47;;
9972;SDS011;5027;53.560;10.062;2023-06-14T14:05:06;5.63;;;3.23;;
9972;SDS011;5027;53.560;10.062;2023-06-14T14:07:35;10.53;;;3.70;;
9972;SDS011;5027;53.560;10.062;2023-06-14T14:10:02;5.50;;;3.70;;
9972;SDS011;5027;53.560;10.062;2023-06-14T14:12:33;4.10;;;3.70;;
9972;SDS011;5027;53.560;10.062;2023-06-14T14:14:59;6.37;;;3.47;;
9972;SDS011;5027;53.560;10.062;2023-06-14T14:17:26;7.53;;;3.60;;
9972;SDS011;5027;53.560;10.062;2023-06-14T14:19:53;7.23;;;3.30;;
9972;SDS011;5027;53.560;10.062;2023-06-14T14:22:20;9.77;;;3.73;;
9972;SDS011;5027;53.560;10.062;2023-06-14T14:24:47;7.30;;;3.73;;
9972;SDS011;5027;53.560;10.062;2023-06-14T14:27:14;6.33;;;3.70;;
9972;SDS011;5027;53.560;10.062;2023-06-14T14:29:40;7.60;;;4.30;;
9972;SDS011;5027;53.560;10.062;2023-06-14T14:32:07;5.70;;;3.07;;
9972;SDS011;5027;53.560;10.062;2023-06-14T14:34:37;6.30;;;4.00;;
9972;SDS011;5027;53.560;10.062;2023-06-14T14:37:04;4.57;;;3.40;;
9972;SDS011;5027;53.560;10.062;2023-06-14T14:39:41;4.73;;;3.33;;
9972;SDS011;5027;53.560;10.062;2023-06-14T14:42:08;5.90;;;3.80;;
9972;SDS011;5027;53.560;10.062;2023-06-14T14:44:37;5.30;;;3.70;;
9972;SDS011;5027;53.560;10.062;2023-06-14T14:47:04;4.97;;;3.27;;
9972;SDS011;5027;53.560;10.062;2023-06-14T14:49:32;5.03;;;3.23;;
9972;SDS011;5027;53.560;10.062;2023-06-14T14:51:59;5.63;;;2.93;;
9972;SDS011;5027;53.560;10.062;2023-06-14T14:54:40;6.00;;;3.60;;
9972;SDS011;5027;53.560;10.062;2023-06-14T14:57:06;6.67;;;4.43;;
9972;SDS011;5027;53.560;10.062;2023-06-14T14:59:36;4.50;;;4.10;;
9972;SDS011;5027;53.560;10.062;2023-06-14T15:02:06;4.43;;;3.80;;
9972;SDS011;5027;53.560;10.062;2023-06-14T15:04:33;7.77;;;3.70;;
9972;SDS011;5027;53.560;10.062;2023-06-14T15:07:02;6.87;;;4.37;;
9972;SDS011;5027;53.560;10.062;2023-06-14T15:09:29;19.50;;;15.67;;
9972;SDS011;5027;53.560;10.062;2023-06-14T15:11:57;5.27;;;4.20;;
9972;SDS011;5027;53.560;10.062;2023-06-14T15:14:26;7.37;;;3.40;;
9972;SDS011;5027;53.560;10.062;2023-06-14T15:16:53;5.07;;;3.03;;
9972;SDS011;5027;53.560;10.062;2023-06-14T15:19:20;4.27;;;3.40;;
9972;SDS011;5027;53.560;10.062;2023-06-14T15:21:47;4.77;;;3.17;;
9972;SDS011;5027;53.560;10.062;2023-06-14T15:24:13;4.37;;;3.30;;
9972;SDS011;5027;53.560;10.062;2023-06-14T15:26:42;9.00;;;4.30;;